Time;durP1;ratioP1;P1;durP2;ratioP2;P2;SDS_P1;SDS_P2;PMS_P1;PMS_P2;Temp;Humidity;BMP_temperature;BMP_pressure;BME280_temperature;BME280_humidity;BME280_pressure;Samples;Min_cycle;Max_cycle;Signal;HPM_P1;HPM_P2
2023/01/25 00:01:54;;;;;;;27.23;20.77;;;2.00;99.90;;;;;;5096167;28;20043;-82
2023/01/25 00:04:21;;;;;;;25.02;19.75;;;2.10;99.90;;;;;;5096482;28;20488;-82
2023/01/25 00:06:47;;;;;;;26.83;20.15;;;2.10;99.90;;;;;;5096245;28;20089;-81
2023/01/25 00:09:14;;;;;;;24.80;20.52;;;2.00;99.90;;;;;;5095534;28;20048;-81
2023/01/25 00:11:40;;;;;;;29.38;21.30;;;2.10;99.90;;;;;;5096470;28;20040;-82
2023/01/25 00:14:06;;;;;;;28.60;22.00;;;2.00;99.90;;;;;;5094493;28;20067;-82
2023/01/25 00:16:32;;;;;;;26.20;20.60;;;2.00;99.90;;;;;;5095169;28;20047;-81
2023/01/25 00:18:58;;;;;;;25.73;21.00;;;2.00;99.90;;;;;;5094092;28;20048;-83
2023/01/25 00:21:25;;;;;;;25.80;20.17;;;2.00;99.90;;;;;;5094701;28;20110;-81
2023/01/25 00:23:51;;;;;;;28.25;21.13;;;2.00;99.90;;;;;;5095916;28;20137;-82
2023/01/25 00:26:17;;;;;;;27.73;21.77;;;2.00;99.90;;;;;;5096684;28;20094;-82
2023/01/25 00:28:57;;;;;;;28.80;21.70;;;2.10;99.90;;;;;;5095485;28;20044;-81
2023/01/25 00:31:32;;;;;;;30.73;23.25;;;2.10;99.90;;;;;;5100097;28;20055;-82
2023/01/25 00:34:05;;;;;;;30.88;23.95;;;2.10;99.90;;;;;;5100261;28;20052;-82
2023/01/25 00:36:38;;;;;;;28.60;22.33;;;2.20;99.90;;;;;;5100452;28;20476;-82
2023/01/25 00:39:11;;;;;;;32.58;24.83;;;2.20;99.90;;;;;;5099719;28;20442;-82
2023/01/25 00:41:37;;;;;;;29.67;23.40;;;2.20;99.90;;;;;;5099627;28;20048;-82
2023/01/25 00:44:03;;;;;;;28.40;23.40;;;2.20;99.90;;;;;;5098040;28;20557;-83
2023/01/25 00:46:28;;;;;;;35.17;23.43;;;2.20;99.90;;;;;;5081020;28;20056;-82
2023/01/25 00:48:55;;;;;;;29.20;24.13;;;2.20;99.90;;;;;;5098594;28;20044;-82
2023/01/25 00:51:21;;;;;;;33.25;23.80;;;2.20;99.90;;;;;;5098080;28;20042;-81
2023/01/25 00:53:47;;;;;;;30.25;25.45;;;2.20;99.90;;;;;;5079877;28;20502;-82
2023/01/25 00:56:13;;;;;;;32.20;25.23;;;2.20;99.90;;;;;;5096514;28;20143;-82
2023/01/25 00:58:42;;;;;;;34.23;27.60;;;2.20;99.90;;;;;;5097505;28;20044;-82
2023/01/25 01:01:08;;;;;;;32.90;26.27;;;2.20;99.90;;;;;;5078513;28;20396;-82
2023/01/25 01:03:33;;;;;;;31.03;26.13;;;2.20;99.90;;;;;;5096861;28;20044;-82
2023/01/25 01:06:05;;;;;;;32.93;25.83;;;2.20;99.90;;;;;;5095340;28;20476;-82
2023/01/25 01:08:38;;;;;;;34.97;26.65;;;2.10;99.90;;;;;;5096627;28;20052;-82
2023/01/25 01:11:07;;;;;;;33.60;26.73;;;2.10;99.90;;;;;;5096156;28;20127;-84
2023/01/25 01:13:33;;;;;;;35.95;28.30;;;2.10;99.90;;;;;;5096289;28;20048;-81
2023/01/25 01:16:01;;;;;;;35.30;27.00;;;2.10;99.90;;;;;;5094874;28;20044;-82
2023/01/25 01:18:28;;;;;;;32.92;26.35;;;2.10;99.90;;;;;;5094554;28;20048;-82
2023/01/25 01:20:55;;;;;;;34.75;28.88;;;2.10;99.90;;;;;;5096047;28;20571;-82
2023/01/25 01:23:20;;;;;;;35.85;28.70;;;2.10;99.90;;;;;;5094695;28;20040;-82
2023/01/25 01:25:46;;;;;;;36.23;29.07;;;2.20;99.90;;;;;;5095964;28;20487;-82
2023/01/25 01:28:12;;;;;;;39.00;30.23;;;2.20;99.90;;;;;;5077253;28;20056;-82
2023/01/25 01:30:38;;;;;;;35.60;29.13;;;2.20;99.90;;;;;;5078110;28;20048;-82
2023/01/25 01:33:04;;;;;;;39.30;31.33;;;2.20;99.90;;;;;;5094939;28;20048;-82
2023/01/25 01:35:31;;;;;;;35.00;28.58;;;2.20;99.90;;;;;;5095539;28;20044;-83
2023/01/25 01:37:58;;;;;;;38.97;30.38;;;2.20;99.90;;;;;;5095779;28;20054;-81
2023/01/25 01:40:24;;;;;;;40.30;30.73;;;2.20;99.90;;;;;;5094947;28;20446;-82
2023/01/25 01:42:57;;;;;;;41.03;30.85;;;2.10;99.90;;;;;;5094444;28;20126;-82
2023/01/25 01:45:42;;;;;;;38.72;31.38;;;2.10;99.90;;;;;;5094208;28;20051;-82
2023/01/25 01:48:15;;;;;;;41.10;30.13;;;1.90;99.90;;;;;;5094196;28;20109;-83
2023/01/25 01:50:41;;;;;;;40.15;31.42;;;1.90;99.90;;;;;;5094597;28;20086;-82
2023/01/25 01:53:08;;;;;;;38.53;30.58;;;1.80;99.90;;;;;;5094367;28;20076;-82
2023/01/25 01:55:34;;;;;;;41.25;31.30;;;1.70;99.90;;;;;;5095733;28;20044;-82
2023/01/25 01:58:02;;;;;;;41.92;31.42;;;1.60;99.90;;;;;;5061238;28;20052;-82
2023/01/25 02:00:33;;;;;;;41.83;32.47;;;1.60;99.90;;;;;;5094995;28;20044;-82
2023/01/25 02:03:00;;;;;;;42.55;31.85;;;1.60;99.90;;;;;;5094204;28;20049;-81
2023/01/25 02:05:39;;;;;;;42.38;32.22;;;1.60;99.90;;;;;;5076882;28;20101;-82
2023/01/25 02:08:08;;;;;;;42.70;32.25;;;1.70;99.90;;;;;;5094203;28;20140;-81
2023/01/25 02:10:35;;;;;;;43.22;33.22;;;1.70;99.90;;;;;;5094737;28;20503;-82
2023/01/25 02:13:01;;;;;;;46.17;34.25;;;1.70;99.90;;;;;;5093761;28;20044;-82
2023/01/25 02:15:30;;;;;;;43.70;33.70;;;1.70;99.90;;;;;;5094622;28;20036;-82
2023/01/25 02:17:56;;;;;;;45.58;34.45;;;1.70;99.90;;;;;;5077055;28;20485;-82
2023/01/25 02:20:36;;;;;;;45.33;33.43;;;1.80;99.90;;;;;;5094553;28;20055;-82
2023/01/25 02:23:35;;;;;;;44.53;33.42;;;1.80;99.90;;;;;;5094879;28;20048;-80
2023/01/25 02:26:04;;;;;;;47.05;34.40;;;1.80;99.90;;;;;;5093321;28;20083;-82
2023/01/25 02:28:45;;;;;;;50.28;36.55;;;1.90;99.90;;;;;;5094370;28;20056;-81
2023/01/25 02:31:11;;;;;;;49.65;37.15;;;1.80;99.90;;;;;;5093245;28;20127;-81
2023/01/25 02:33:37;;;;;;;44.30;34.73;;;1.80;99.90;;;;;;5094678;28;20083;-82
2023/01/25 02:36:06;;;;;;;47.43;36.40;;;1.80;99.90;;;;;;5094522;28;20149;-83
2023/01/25 02:38:45;;;;;;;45.72;34.38;;;1.80;99.90;;;;;;5094256;28;20444;-82
2023/01/25 02:41:20;;;;;;;47.97;36.42;;;1.80;99.90;;;;;;5094478;28;20051;-81
2023/01/25 02:43:46;;;;;;;48.35;36.30;;;1.80;99.90;;;;;;5094352;28;20050;-82
2023/01/25 02:46:26;;;;;;;48.17;37.10;;;1.80;99.90;;;;;;5094286;28;20040;-81
2023/01/25 02:48:53;;;;;;;48.97;37.30;;;1.90;99.90;;;;;;5094498;28;20052;-82
2023/01/25 02:51:19;;;;;;;49.47;37.38;;;1.90;99.90;;;;;;5093832;28;20052;-82
2023/01/25 02:53:45;;;;;;;50.72;38.75;;;1.80;99.90;;;;;;5092714;28;20056;-82
2023/01/25 02:56:10;;;;;;;51.33;38.73;;;1.90;99.90;;;;;;5093121;28;20056;-82
2023/01/25 02:58:36;;;;;;;50.67;38.70;;;1.80;99.90;;;;;;5092676;28;20396;-81
2023/01/25 03:01:02;;;;;;;52.83;38.87;;;1.90;99.90;;;;;;5094108;28;20526;-82
2023/01/25 03:03:27;;;;;;;50.87;38.67;;;1.80;99.90;;;;;;5093534;28;20051;-82
2023/01/25 03:05:53;;;;;;;52.00;39.57;;;1.80;99.90;;;;;;5075922;28;20044;-81
2023/01/25 03:08:19;;;;;;;50.97;39.23;;;1.80;99.90;;;;;;5093398;28;20048;-82
2023/01/25 03:10:44;;;;;;;51.80;38.67;;;1.90;99.90;;;;;;5093770;28;20044;-82
2023/01/25 03:13:10;;;;;;;48.90;38.00;;;1.80;99.90;;;;;;5093376;28;20044;-82
2023/01/25 03:15:36;;;;;;;53.27;38.93;;;1.90;99.90;;;;;;5075501;28;20047;-81
2023/01/25 03:18:01;;;;;;;49.20;39.03;;;1.90;99.90;;;;;;5093369;28;20043;-81
2023/01/25 03:20:27;;;;;;;52.50;39.13;;;1.90;99.90;;;;;;5092351;28;20044;-82
2023/01/25 03:22:54;;;;;;;51.03;39.43;;;1.90;99.90;;;;;;5093259;28;20048;-81
2023/01/25 03:25:20;;;;;;;52.17;39.78;;;1.90;99.90;;;;;;5093133;28;20036;-82
2023/01/25 03:27:45;;;;;;;55.33;40.27;;;1.90;99.90;;;;;;5091843;28;20136;-81
2023/01/25 03:30:11;;;;;;;53.87;40.73;;;1.80;99.90;;;;;;5092678;28;20052;-83
2023/01/25 03:32:37;;;;;;;54.47;41.23;;;1.80;99.90;;;;;;5093302;28;20385;-82
2023/01/25 03:35:03;;;;;;;53.53;40.27;;;1.80;99.90;;;;;;5093537;28;20040;-82
2023/01/25 03:37:30;;;;;;;56.08;38.90;;;1.80;99.90;;;;;;5092743;28;20043;-82
2023/01/25 03:39:56;;;;;;;51.95;39.35;;;1.80;99.90;;;;;;5093494;28;20044;-81
2023/01/25 03:42:23;;;;;;;56.20;38.90;;;1.80;99.90;;;;;;5092982;28;20044;-82
2023/01/25 03:44:49;;;;;;;52.05;39.78;;;1.80;99.90;;;;;;5092239;28;20056;-82
2023/01/25 03:47:15;;;;;;;51.27;38.67;;;1.80;99.90;;;;;;5093231;28;20050;-81
2023/01/25 03:49:41;;;;;;;52.80;39.50;;;1.80;99.90;;;;;;5092840;28;20842;-82
2023/01/25 03:52:07;;;;;;;53.85;41.08;;;1.80;99.90;;;;;;5091945;28;20044;-82
2023/01/25 03:54:33;;;;;;;54.03;40.55;;;1.80;99.90;;;;;;5093030;28;20044;-83
2023/01/25 03:56:59;;;;;;;55.80;40.73;;;1.80;99.90;;;;;;5093563;28;20055;-82
2023/01/25 03:59:25;;;;;;;55.73;41.93;;;1.80;99.90;;;;;;5092900;28;20571;-83
2023/01/25 04:01:50;;;;;;;53.10;40.57;;;1.80;99.90;;;;;;5093015;28;20297;-82
2023/01/25 04:04:16;;;;;;;54.43;41.53;;;1.90;99.90;;;;;;5093165;28;20059;-82
2023/01/25 04:06:42;;;;;;;53.10;40.10;;;1.90;99.90;;;;;;5096167;28;20387;-82
2023/01/25 04:09:08;;;;;;;51.47;38.63;;;1.90;99.90;;;;;;5098139;28;20079;-82
2023/01/25 04:11:34;;;;;;;51.17;40.05;;;1.90;99.90;;;;;;5097975;28;20044;-83
2023/01/25 04:13:59;;;;;;;50.47;39.20;;;1.90;99.90;;;;;;5097455;28;20051;-82
2023/01/25 04:16:26;;;;;;;52.17;39.37;;;1.90;99.90;;;;;;5096418;28;20058;-83
2023/01/25 04:18:52;;;;;;;48.95;36.80;;;1.80;99.90;;;;;;5080066;28;20044;-82
2023/01/25 04:21:18;;;;;;;49.07;38.33;;;1.80;99.90;;;;;;5080059;28;20436;-82
2023/01/25 04:23:43;;;;;;;45.97;35.83;;;1.80;99.90;;;;;;5096001;28;20133;-82
2023/01/25 04:26:11;;;;;;;49.30;38.17;;;1.80;99.90;;;;;;5062383;28;20059;-82
2023/01/25 04:28:37;;;;;;;47.63;37.58;;;1.80;99.90;;;;;;5078972;28;20083;-83
2023/01/25 04:31:04;;;;;;;49.25;37.88;;;1.80;99.90;;;;;;5096174;28;20063;-82
2023/01/25 04:33:31;;;;;;;45.55;36.58;;;1.70;99.90;;;;;;5095878;28;20135;-83
2023/01/25 04:35:57;;;;;;;47.78;36.00;;;1.70;99.90;;;;;;5096262;28;20088;-82
2023/01/25 04:38:23;;;;;;;45.43;36.03;;;1.70;99.90;;;;;;5095688;28;20051;-82
2023/01/25 04:40:50;;;;;;;46.90;36.55;;;1.70;99.90;;;;;;5096383;28;20050;-82
2023/01/25 04:43:17;;;;;;;45.80;36.17;;;1.70;99.90;;;;;;5096888;28;20090;-82
2023/01/25 04:45:43;;;;;;;45.03;35.03;;;1.70;99.90;;;;;;5096324;28;20123;-82
2023/01/25 04:48:10;;;;;;;44.33;34.67;;;1.70;99.90;;;;;;5095523;28;20140;-82
2023/01/25 04:50:37;;;;;;;43.60;34.28;;;1.60;99.90;;;;;;5096179;28;20040;-82
2023/01/25 04:53:04;;;;;;;44.85;34.78;;;1.60;99.90;;;;;;5095490;28;20054;-82
2023/01/25 04:55:30;;;;;;;43.35;33.28;;;1.60;99.90;;;;;;5096091;28;20046;-83
2023/01/25 04:57:55;;;;;;;42.20;32.67;;;1.60;99.90;;;;;;5096076;28;20126;-82
2023/01/25 05:00:21;;;;;;;41.30;32.13;;;1.60;99.90;;;;;;5078362;28;20044;-82
2023/01/25 05:02:47;;;;;;;42.27;32.93;;;1.60;99.90;;;;;;5095990;28;20048;-82
2023/01/25 05:05:13;;;;;;;40.87;32.40;;;1.70;99.90;;;;;;5096127;28;20722;-82
2023/01/25 05:07:39;;;;;;;36.97;30.43;;;1.60;99.90;;;;;;5095925;28;20052;-82
2023/01/25 05:10:06;;;;;;;42.33;32.57;;;1.60;99.90;;;;;;5096061;28;20104;-82
2023/01/25 05:12:31;;;;;;;41.42;33.28;;;1.60;99.90;;;;;;5094526;28;20544;-83
2023/01/25 05:14:57;;;;;;;38.23;30.43;;;1.60;99.90;;;;;;5095958;28;20174;-83
2023/01/25 05:17:23;;;;;;;39.23;29.97;;;1.50;99.90;;;;;;5094595;28;20086;-82
2023/01/25 05:19:48;;;;;;;39.90;31.90;;;1.50;99.90;;;;;;5077834;28;20083;-82
2023/01/25 05:22:16;;;;;;;41.93;32.30;;;1.50;99.90;;;;;;5094897;28;20047;-82
2023/01/25 05:24:41;;;;;;;37.67;31.08;;;1.40;99.90;;;;;;5095519;28;20056;-81
2023/01/25 05:27:08;;;;;;;40.57;32.93;;;1.50;99.90;;;;;;5094230;28;20052;-81
2023/01/25 05:29:39;;;;;;;37.97;30.65;;;1.40;99.90;;;;;;5095128;28;20504;-83
2023/01/25 05:32:09;;;;;;;42.05;31.60;;;1.50;99.90;;;;;;5095804;28;20075;-82
2023/01/25 05:34:35;;;;;;;40.88;32.25;;;1.50;99.90;;;;;;5077458;28;20048;-83
2023/01/25 05:37:02;;;;;;;45.33;34.30;;;1.60;99.90;;;;;;5077739;28;20490;-82
2023/01/25 05:39:28;;;;;;;39.10;31.05;;;1.50;99.90;;;;;;5095548;28;20044;-81
2023/01/25 05:41:53;;;;;;;42.70;34.37;;;1.50;99.90;;;;;;5094816;28;20107;-81
2023/01/25 05:44:20;;;;;;;42.80;33.53;;;1.50;99.90;;;;;;5095356;28;20047;-81
2023/01/25 05:46:46;;;;;;;43.05;35.17;;;1.50;99.90;;;;;;5095071;28;20054;-82
2023/01/25 05:49:11;;;;;;;43.40;34.00;;;1.50;99.90;;;;;;5094120;28;20040;-82
2023/01/25 05:51:37;;;;;;;39.37;32.23;;;1.50;99.90;;;;;;5095006;28;20316;-83
2023/01/25 05:54:04;;;;;;;42.92;34.63;;;1.50;99.90;;;;;;5095425;28;20116;-82
2023/01/25 05:56:31;;;;;;;41.97;34.78;;;1.50;99.90;;;;;;5095266;28;20046;-82
2023/01/25 05:58:59;;;;;;;40.83;34.28;;;1.50;99.90;;;;;;5094881;28;20419;-82
2023/01/25 06:01:26;;;;;;;42.78;34.13;;;1.50;99.90;;;;;;5093625;28;20568;-82
2023/01/25 06:03:52;;;;;;;41.50;33.92;;;1.50;99.90;;;;;;5094809;28;20055;-82
2023/01/25 06:06:18;;;;;;;40.38;33.90;;;1.50;99.90;;;;;;5094983;28;20055;-82
2023/01/25 06:08:44;;;;;;;40.37;32.20;;;1.50;99.90;;;;;;5076666;28;20036;-82
2023/01/25 06:11:12;;;;;;;42.75;33.90;;;1.50;99.90;;;;;;5093817;28;20777;-82
2023/01/25 06:13:38;;;;;;;40.17;33.10;;;1.50;99.90;;;;;;5093487;28;20048;-82
2023/01/25 06:16:03;;;;;;;42.03;33.07;;;1.50;99.90;;;;;;5093529;28;20135;-82
2023/01/25 06:18:31;;;;;;;41.57;33.20;;;1.50;99.90;;;;;;5093772;28;20104;-81
2023/01/25 06:20:57;;;;;;;40.78;32.60;;;1.50;99.90;;;;;;5094591;28;20044;-81
2023/01/25 06:23:23;;;;;;;38.95;31.98;;;1.50;99.90;;;;;;5094968;28;20131;-82
2023/01/25 06:25:49;;;;;;;42.42;33.38;;;1.50;99.90;;;;;;5094361;28;20036;-82
2023/01/25 06:28:15;;;;;;;39.53;32.78;;;1.50;99.90;;;;;;5093724;28;20056;-82
2023/01/25 06:30:41;;;;;;;39.77;32.40;;;1.50;99.90;;;;;;5094203;28;20529;-82
2023/01/25 06:33:07;;;;;;;40.88;32.92;;;1.50;99.90;;;;;;5094540;28;20036;-82
2023/01/25 06:35:33;;;;;;;42.83;32.87;;;1.50;99.90;;;;;;5093201;28;20093;-82
2023/01/25 06:37:59;;;;;;;44.67;35.30;;;1.40;99.90;;;;;;5093187;28;20047;-82
2023/01/25 06:40:27;;;;;;;41.15;33.08;;;1.50;99.90;;;;;;5094360;28;20054;-82
2023/01/25 06:42:53;;;;;;;42.33;33.95;;;1.50;99.90;;;;;;5094093;28;20055;-82
2023/01/25 06:45:19;;;;;;;39.70;31.95;;;1.50;99.90;;;;;;5094218;28;20050;-82
2023/01/25 06:47:47;;;;;;;39.97;31.33;;;1.50;99.90;;;;;;5092616;28;20045;-82
2023/01/25 06:50:12;;;;;;;42.85;33.05;;;1.40;99.90;;;;;;5094404;28;20044;-81
2023/01/25 06:52:38;;;;;;;42.83;34.03;;;1.40;99.90;;;;;;5093747;28;20120;-82
2023/01/25 06:55:06;;;;;;;44.73;33.47;;;1.40;99.90;;;;;;5092904;28;20044;-81
2023/01/25 06:57:33;;;;;;;46.35;35.30;;;1.40;99.90;;;;;;5094070;28;20076;-81
2023/01/25 06:59:59;;;;;;;46.72;34.67;;;1.40;99.90;;;;;;5093551;28;20055;-81
2023/01/25 07:02:25;;;;;;;44.80;34.38;;;1.30;99.90;;;;;;5092810;28;20060;-81
2023/01/25 07:04:50;;;;;;;45.23;35.00;;;1.30;99.90;;;;;;5093582;28;20269;-82
2023/01/25 07:07:16;;;;;;;45.60;34.67;;;1.50;99.90;;;;;;5093963;28;20052;-81
2023/01/25 07:09:42;;;;;;;44.53;34.23;;;1.40;99.90;;;;;;5093671;28;20365;-80
2023/01/25 07:12:08;;;;;;;45.53;35.13;;;1.40;99.90;;;;;;5093685;28;20317;-81
2023/01/25 07:14:33;;;;;;;47.07;36.67;;;1.40;99.90;;;;;;5092680;28;20040;-81
2023/01/25 07:17:00;;;;;;;47.67;36.13;;;1.40;99.90;;;;;;5092360;28;20050;-81
2023/01/25 07:19:25;;;;;;;45.10;34.92;;;1.40;99.90;;;;;;5093370;28;20054;-80
2023/01/25 07:21:52;;;;;;;47.37;35.63;;;1.40;99.90;;;;;;5092090;28;20131;-81
2023/01/25 07:24:19;;;;;;;45.55;34.10;;;1.50;99.90;;;;;;5092502;28;20387;-81
2023/01/25 07:26:45;;;;;;;46.83;35.30;;;1.50;99.90;;;;;;5093142;28;20060;-82
2023/01/25 07:29:13;;;;;;;46.92;36.00;;;1.50;99.90;;;;;;5093499;28;20047;-81
2023/01/25 07:31:40;;;;;;;48.58;36.03;;;1.50;99.90;;;;;;5093377;28;20134;-81
2023/01/25 07:34:08;;;;;;;49.92;37.83;;;1.60;99.90;;;;;;5075245;28;20052;-81
2023/01/25 07:36:34;;;;;;;50.13;37.35;;;1.60;99.90;;;;;;5093527;28;20090;-81
2023/01/25 07:39:00;;;;;;;47.03;35.13;;;1.60;99.90;;;;;;5092522;28;20474;-81
2023/01/25 07:41:26;;;;;;;47.45;37.45;;;1.60;99.90;;;;;;5091701;28;20071;-81
2023/01/25 07:43:52;;;;;;;48.77;36.73;;;1.50;99.90;;;;;;5091758;28;20047;-80
2023/01/25 07:46:18;;;;;;;49.50;36.75;;;1.50;99.90;;;;;;5093290;28;20123;-81
2023/01/25 07:48:46;;;;;;;47.35;36.10;;;1.50;99.90;;;;;;5093046;28;20071;-81
2023/01/25 07:51:21;;;;;;;47.55;36.33;;;1.50;99.90;;;;;;5093116;28;20071;-81
2023/01/25 07:53:56;;;;;;;49.88;37.13;;;1.50;99.90;;;;;;5076326;28;20047;-81
2023/01/25 07:56:23;;;;;;;47.92;36.47;;;1.50;99.90;;;;;;5093371;28;20044;-81
2023/01/25 07:58:52;;;;;;;47.58;36.10;;;1.50;99.90;;;;;;5092792;28;20040;-81
2023/01/25 08:01:20;;;;;;;49.80;35.90;;;1.50;99.90;;;;;;5092967;28;20104;-81
2023/01/25 08:03:48;;;;;;;47.83;35.33;;;1.50;99.90;;;;;;5093130;28;20092;-81
2023/01/25 08:06:14;;;;;;;49.67;35.50;;;1.60;99.90;;;;;;5074935;28;20083;-81
2023/01/25 08:08:46;;;;;;;46.70;34.53;;;1.60;99.90;;;;;;5092929;28;20083;-81
2023/01/25 08:11:24;;;;;;;49.25;36.00;;;1.60;99.90;;;;;;5092847;28;20058;-81
2023/01/25 08:13:50;;;;;;;48.00;35.50;;;1.60;99.90;;;;;;5092890;28;20189;-83
2023/01/25 08:16:22;;;;;;;45.72;33.45;;;1.60;99.90;;;;;;5092980;28;20043;-81
2023/01/25 08:18:49;;;;;;;51.28;36.03;;;1.60;99.90;;;;;;5092034;28;20044;-80
2023/01/25 08:21:15;;;;;;;49.97;36.25;;;1.60;99.90;;;;;;5091729;28;20055;-81
2023/01/25 08:23:41;;;;;;;49.47;36.85;;;1.60;99.90;;;;;;5092840;28;20556;-81
2023/01/25 08:26:09;;;;;;;51.13;37.13;;;1.60;99.90;;;;;;5091307;28;20075;-82
2023/01/25 08:28:35;;;;;;;49.10;37.10;;;1.50;99.90;;;;;;5092840;28;20126;-81
2023/01/25 08:31:10;;;;;;;49.97;35.53;;;1.60;99.90;;;;;;5091480;28;20181;-82
2023/01/25 08:33:36;;;;;;;48.63;34.55;;;1.60;99.90;;;;;;5092130;28;20477;-80
2023/01/25 08:36:02;;;;;;;46.83;34.67;;;1.60;99.90;;;;;;5092626;28;20046;-81
2023/01/25 08:38:28;;;;;;;48.53;35.28;;;1.60;99.90;;;;;;5092653;28;20048;-81
2023/01/25 08:40:54;;;;;;;51.20;37.20;;;1.60;99.90;;;;;;5091490;28;20043;-82
2023/01/25 08:43:20;;;;;;;53.70;37.70;;;1.60;99.90;;;;;;5091394;28;20396;-72
2023/01/25 08:45:54;;;;;;;49.17;35.83;;;1.60;99.90;;;;;;5092566;28;20131;-78
2023/01/25 08:48:20;;;;;;;48.15;33.75;;;1.60;99.90;;;;;;5092543;28;20048;-79
2023/01/25 08:50:46;;;;;;;45.10;30.77;;;1.60;99.90;;;;;;5093261;28;20153;-80
2023/01/25 08:53:12;;;;;;;43.53;30.13;;;1.60;99.90;;;;;;5096028;28;20043;-80
2023/01/25 08:55:40;;;;;;;45.28;31.17;;;1.50;99.90;;;;;;5095184;28;20121;-79
2023/01/25 08:58:09;;;;;;;44.60;31.45;;;1.60;99.90;;;;;;5094737;28;20044;-79
2023/01/25 09:00:37;;;;;;;44.75;30.48;;;1.60;99.90;;;;;;5096141;28;20055;-79
2023/01/25 09:03:03;;;;;;;45.35;30.73;;;1.60;99.90;;;;;;5095914;28;20044;-79
2023/01/25 09:05:29;;;;;;;46.13;30.13;;;1.60;99.90;;;;;;5094861;28;20070;-79
2023/01/25 09:07:54;;;;;;;48.00;30.87;;;1.60;99.90;;;;;;5096082;28;20044;-78
2023/01/25 09:10:20;;;;;;;47.27;30.07;;;1.60;99.90;;;;;;5095956;28;20127;-78
2023/01/25 09:12:46;;;;;;;47.93;30.63;;;1.60;99.90;;;;;;5096117;28;20051;-77
2023/01/25 09:15:11;;;;;;;48.40;30.67;;;1.60;99.90;;;;;;5095693;28;20044;-78
2023/01/25 09:17:37;;;;;;;48.03;30.73;;;1.60;99.90;;;;;;5094953;28;20052;-78
2023/01/25 09:20:06;;;;;;;47.08;31.00;;;1.60;99.90;;;;;;5094563;28;20476;-79
2023/01/25 09:22:31;;;;;;;48.10;29.88;;;1.60;99.90;;;;;;5095868;28;20134;-77
2023/01/25 09:24:57;;;;;;;48.83;30.43;;;1.60;99.90;;;;;;5095528;28;20139;-82
2023/01/25 09:27:23;;;;;;;48.83;31.37;;;1.60;99.90;;;;;;5094696;28;20557;-79
2023/01/25 09:29:48;;;;;;;48.30;31.40;;;1.60;99.90;;;;;;5094399;28;20052;-78
2023/01/25 09:32:14;;;;;;;48.40;30.73;;;1.60;99.90;;;;;;5094393;28;20048;-76
2023/01/25 09:34:40;;;;;;;48.73;30.40;;;1.60;99.90;;;;;;5094584;28;20078;-77
2023/01/25 09:37:06;;;;;;;46.83;30.83;;;1.70;99.90;;;;;;5094939;28;20040;-77
2023/01/25 09:39:32;;;;;;;46.03;30.87;;;1.70;99.90;;;;;;5094552;28;20135;-77
2023/01/25 09:42:09;;;;;;;48.97;30.40;;;1.70;99.90;;;;;;5094622;28;20127;-78
2023/01/25 09:45:05;;;;;;;52.13;32.40;;;1.70;99.90;;;;;;5095968;28;20048;-79
2023/01/25 09:47:43;;;;;;;;;;;1.70;99.90;;;;;;5095940;28;20140;-78
2023/01/25 09:50:46;;;;;;;53.42;31.35;;;1.70;99.90;;;;;;5095129;28;19931;-78
2023/01/25 09:53:32;;;;;;;54.88;30.15;;;1.80;99.90;;;;;;5095175;28;20197;-77
2023/01/25 09:56:22;;;;;;;48.58;29.13;;;1.80;99.90;;;;;;5095780;28;20052;-78
2023/01/25 09:58:56;;;;;;;53.17;32.55;;;1.80;99.90;;;;;;5095071;28;20508;-79
2023/01/25 10:01:25;;;;;;;55.05;32.65;;;1.80;99.90;;;;;;5094125;28;20056;-79
2023/01/25 10:04:05;;;;;;;48.53;30.00;;;1.80;99.90;;;;;;5093353;28;20507;-76
2023/01/25 10:06:40;;;;;;;51.95;29.38;;;1.80;99.90;;;;;;5095502;28;20062;-80
2023/01/25 10:09:27;;;;;;;49.55;31.05;;;1.80;99.90;;;;;;5094946;28;20058;-80
2023/01/25 10:11:53;;;;;;;53.53;29.27;;;1.80;99.90;;;;;;5095241;28;20050;-76
2023/01/25 10:14:20;;;;;;;49.20;28.80;;;1.80;99.90;;;;;;5094663;28;20135;-79
2023/01/25 10:16:46;;;;;;;51.20;28.92;;;1.80;99.90;;;;;;5094945;28;20153;-79
2023/01/25 10:19:33;;;;;;;50.83;27.03;;;1.80;99.90;;;;;;5094495;28;20062;-77
2023/01/25 10:22:22;;;;;;;51.08;28.10;;;1.90;99.90;;;;;;5093512;28;20052;-82
2023/01/25 10:25:26;;;;;;;52.42;28.88;;;1.80;99.90;;;;;;5095017;28;20043;-82
2023/01/25 10:28:11;;;;;;;52.50;28.48;;;1.90;99.90;;;;;;5094938;28;20056;-81
2023/01/25 10:30:45;;;;;;;52.40;30.65;;;1.90;99.90;;;;;;5093651;28;20040;-81
2023/01/25 10:33:14;;;;;;;51.33;29.15;;;1.90;99.90;;;;;;5093351;28;20043;-79
2023/01/25 10:35:44;;;;;;;52.63;27.55;;;1.90;99.90;;;;;;5094396;28;20036;-81
2023/01/25 10:38:26;;;;;;;56.25;29.88;;;1.90;99.90;;;;;;5094117;28;20048;-81
2023/01/25 10:41:04;;;;;;;49.42;27.30;;;1.90;99.90;;;;;;5076610;28;20482;-80
2023/01/25 10:43:30;;;;;;;54.40;29.25;;;2.00;99.90;;;;;;5093069;28;20105;-81
2023/01/25 10:45:56;;;;;;;54.63;29.40;;;2.00;99.90;;;;;;5093094;28;20410;-80
2023/01/25 10:48:36;;;;;;;52.63;29.17;;;2.10;99.90;;;;;;5059453;28;20455;-81
2023/01/25 10:51:01;;;;;;;56.30;28.92;;;2.00;99.90;;;;;;5094165;28;20100;-80
2023/01/25 10:53:33;;;;;;;56.77;28.40;;;2.00;99.90;;;;;;5092631;28;20055;-76
2023/01/25 10:56:18;;;;;;;54.60;28.83;;;2.10;99.90;;;;;;5094107;28;20036;-81
2023/01/25 10:58:49;;;;;;;52.85;29.08;;;2.10;99.90;;;;;;5094166;28;20052;-80
2023/01/25 11:01:26;;;;;;;48.47;28.08;;;2.10;99.90;;;;;;5092603;28;20059;-80
2023/01/25 11:03:53;;;;;;;49.40;27.80;;;2.10;99.90;;;;;;5093995;28;20058;-81
2023/01/25 11:06:51;;;;;;;47.35;27.13;;;2.10;99.90;;;;;;5093517;28;20047;-82
2023/01/25 11:09:20;;;;;;;49.95;26.75;;;2.10;99.90;;;;;;5049125;28;20052;-81
2023/01/25 11:11:55;;;;;;;47.15;26.88;;;2.10;99.90;;;;;;5093672;28;20051;-81
2023/01/25 11:14:27;;;;;;;54.05;28.88;;;2.10;99.90;;;;;;5093317;28;20454;-80
2023/01/25 11:16:55;;;;;;;59.17;29.85;;;2.10;99.90;;;;;;5092633;28;20058;-73
2023/01/25 11:19:24;;;;;;;61.00;32.47;;;2.10;99.90;;;;;;5092211;28;20048;-78
2023/01/25 11:21:52;;;;;;;64.30;32.25;;;2.10;99.90;;;;;;5093540;28;20040;-79
2023/01/25 11:24:17;;;;;;;62.35;33.72;;;2.10;99.90;;;;;;5093116;28;20043;-79
2023/01/25 11:26:44;;;;;;;63.57;33.33;;;2.10;99.90;;;;;;5093378;28;20476;-77
2023/01/25 11:29:21;;;;;;;71.07;35.25;;;2.10;99.90;;;;;;5093416;28;20052;-83
2023/01/25 11:31:56;;;;;;;66.13;33.88;;;2.10;99.90;;;;;;5093403;28;20048;-79
2023/01/25 11:34:27;;;;;;;71.88;36.10;;;2.10;99.90;;;;;;5075252;28;20055;-80
2023/01/25 11:37:26;;;;;;;69.32;36.03;;;2.10;99.90;;;;;;5092184;28;20040;-79
2023/01/25 11:39:54;;;;;;;70.78;35.50;;;2.10;99.90;;;;;;5092095;28;20472;-78
2023/01/25 11:42:46;;;;;;;77.60;36.90;;;2.10;99.90;;;;;;5092955;28;20096;-77
2023/01/25 11:45:18;;;;;;;73.10;34.67;;;2.10;99.90;;;;;;5092960;28;20052;-80
2023/01/25 11:47:49;;;;;;;68.03;33.40;;;2.10;99.90;;;;;;5093292;28;20055;-78
2023/01/25 11:50:36;;;;;;;70.00;35.63;;;2.10;99.90;;;;;;5091854;28;20044;-80
2023/01/25 11:53:49;;;;;;;75.20;35.38;;;2.10;99.90;;;;;;5092381;28;20052;-79
2023/01/25 11:56:27;;;;;;;68.47;33.70;;;2.20;99.90;;;;;;5030654;28;20048;-80
2023/01/25 11:59:31;;;;;;;68.00;33.95;;;2.20;99.90;;;;;;5093100;28;20084;-79
2023/01/25 12:02:40;;;;;;;72.10;35.28;;;2.20;99.90;;;;;;5088831;28;20062;-78
2023/01/25 12:05:18;;;;;;;66.05;33.20;;;2.20;99.90;;;;;;5092885;28;20094;-79
2023/01/25 12:07:59;;;;;;;70.60;34.13;;;2.20;99.90;;;;;;5093162;28;20055;-81
2023/01/25 12:10:49;;;;;;;73.38;34.97;;;2.30;99.90;;;;;;5092717;28;20048;-82
2023/01/25 12:13:55;;;;;;;78.78;35.55;;;2.30;99.90;;;;;;5092881;28;20140;-84
2023/01/25 12:16:49;;;;;;;69.15;33.70;;;2.30;99.90;;;;;;4994272;28;20181;-78
2023/01/25 12:19:43;;;;;;;63.78;33.22;;;2.30;99.90;;;;;;5091773;28;20059;-79
2023/01/25 12:22:27;;;;;;;70.68;34.22;;;2.30;99.90;;;;;;5049597;28;20135;-76
2023/01/25 12:25:14;;;;;;;69.20;34.22;;;2.40;99.90;;;;;;5085138;28;20044;-76
2023/01/25 12:28:06;;;;;;;77.25;36.45;;;2.40;99.90;;;;;;5094641;28;20524;-76
2023/01/25 12:30:44;;;;;;;73.20;35.15;;;2.40;99.90;;;;;;5088700;28;20059;-74
2023/01/25 12:33:21;;;;;;;74.43;34.53;;;2.40;99.90;;;;;;5092960;28;20040;-76
2023/01/25 12:36:02;;;;;;;72.85;35.25;;;2.40;99.90;;;;;;5089546;28;20104;-75
2023/01/25 12:38:43;;;;;;;72.40;36.72;;;2.40;99.90;;;;;;5091911;28;20105;-81
2023/01/25 12:42:03;;;;;;;71.03;34.90;;;2.40;99.90;;;;;;5089952;28;20048;-79
2023/01/25 12:44:40;;;;;;;67.30;35.20;;;2.40;99.90;;;;;;5051071;28;20049;-84
2023/01/25 12:48:04;;;;;;;68.65;35.10;;;2.40;99.90;;;;;;5063506;28;20449;-79
2023/01/25 12:50:53;;;;;;;75.97;36.92;;;2.40;99.90;;;;;;5029275;28;20513;-80
2023/01/25 12:53:25;;;;;;;76.88;36.13;;;2.40;99.90;;;;;;5029458;28;20587;-79
2023/01/25 12:55:52;;;;;;;69.93;34.65;;;2.40;99.90;;;;;;5063712;28;20056;-80